createdAt,value
2023-03-17T00:05:54.577Z,25.50
2023-03-17T00:08:25.277Z,25.60
2023-03-17T00:10:54.964Z,25.60
2023-03-17T00:13:36.283Z,25.60
2023-03-17T00:16:14.714Z,25.70
2023-03-17T00:18:47.405Z,25.60
2023-03-17T00:21:18.488Z,25.70
2023-03-17T00:23:50.388Z,25.70
2023-03-17T00:26:21.266Z,25.70
2023-03-17T00:28:54.627Z,25.80
2023-03-17T00:31:43.526Z,25.80
2023-03-17T00:34:16.563Z,25.90
2023-03-17T00:36:48.950Z,25.90
2023-03-17T00:39:21.128Z,25.90
2023-03-17T00:41:54.184Z,25.90
2023-03-17T00:44:24.188Z,26.00
2023-03-17T00:46:56.883Z,26.00
2023-03-17T00:49:31.554Z,26.00
2023-03-17T00:52:01.206Z,26.00
2023-03-17T00:54:33.941Z,26.10
2023-03-17T00:57:06.434Z,26.10
2023-03-17T00:59:40.482Z,26.10
2023-03-17T01:02:25.625Z,26.20
2023-03-17T01:05:05.549Z,26.20
2023-03-17T01:07:35.938Z,26.20
2023-03-17T01:10:08.349Z,26.20
2023-03-17T01:12:38.832Z,26.30
2023-03-17T01:15:08.891Z,26.30
2023-03-17T01:17:39.047Z,26.30
2023-03-17T01:20:10.244Z,26.30
2023-03-17T01:22:42.833Z,26.30
2023-03-17T01:25:15.119Z,26.30
2023-03-17T01:27:45.180Z,26.30
2023-03-17T01:30:16.855Z,26.40
2023-03-17T01:32:46.675Z,26.40
2023-03-17T01:35:17.183Z,26.50
2023-03-17T01:37:48.525Z,26.50
2023-03-17T01:40:21.306Z,26.50
2023-03-17T01:43:00.499Z,26.60
2023-03-17T01:45:46.099Z,26.60
2023-03-17T01:48:16.300Z,26.70
2023-03-17T01:50:48.854Z,26.70
2023-03-17T01:53:20.443Z,26.70
2023-03-17T01:55:50.508Z,26.80
2023-03-17T01:58:21.454Z,26.80
2023-03-17T02:00:52.420Z,26.90
2023-03-17T02:03:27.114Z,26.90
2023-03-17T02:06:02.368Z,26.90
2023-03-17T02:08:32.886Z,27.00
2023-03-17T02:11:04.244Z,27.00
2023-03-17T02:13:34.029Z,27.10
2023-03-17T02:16:13.839Z,27.10
2023-03-17T02:18:50.453Z,27.20
2023-03-17T02:21:35.536Z,27.20
2023-03-17T02:24:06.375Z,27.30
2023-03-17T02:26:40.286Z,27.40
2023-03-17T02:29:10.184Z,27.40
2023-03-17T02:31:42.678Z,27.50
2023-03-17T02:34:15.079Z,27.60
2023-03-17T02:36:45.166Z,27.60
2023-03-17T02:39:15.061Z,27.70
2023-03-17T02:50:24.052Z,28.00
2023-03-17T02:58:56.611Z,28.30
2023-03-17T03:04:22.526Z,28.50
2023-03-17T03:09:50.953Z,28.70
2023-03-17T03:18:02.349Z,29.00
2023-03-17T03:20:37.188Z,29.10
2023-03-17T03:23:07.184Z,29.20
2023-03-17T03:25:40.386Z,29.30
2023-03-17T03:34:06.412Z,29.50
2023-03-17T03:39:29.630Z,29.70
2023-03-17T03:42:05.252Z,29.70
2023-03-17T03:44:35.396Z,29.80
2023-03-17T03:49:58.687Z,30.00
2023-03-17T03:52:39.968Z,30.10
2023-03-17T04:03:40.975Z,30.50
2023-03-17T04:11:50.793Z,30.70
2023-03-17T04:20:10.248Z,30.80
2023-03-17T04:22:48.873Z,30.90
2023-03-17T04:25:19.042Z,30.90
2023-03-17T04:27:49.051Z,31.00
2023-03-17T04:30:18.824Z,31.10
2023-03-17T04:32:48.506Z,31.20
2023-03-17T04:35:19.316Z,31.30
2023-03-17T04:37:50.713Z,31.30
2023-03-17T04:54:29.220Z,31.70
2023-03-17T04:56:59.878Z,31.70
2023-03-17T04:59:34.907Z,31.80
2023-03-17T05:02:08.110Z,31.90
2023-03-17T05:04:43.506Z,31.90
2023-03-17T05:07:23.576Z,31.90
2023-03-17T05:12:41.950Z,31.90
2023-03-17T05:18:10.286Z,32.10
2023-03-17T05:20:44.454Z,32.20
2023-03-17T05:26:24.331Z,32.10
2023-03-17T05:28:59.387Z,32.10
2023-03-17T05:34:24.278Z,32.20
2023-03-17T05:36:56.055Z,32.30
2023-03-17T05:42:13.168Z,32.50
2023-03-17T05:44:50.424Z,32.60
2023-03-17T05:50:16.831Z,32.70
2023-03-17T05:55:37.581Z,32.70
2023-03-17T06:00:56.819Z,32.70
2023-03-17T06:03:29.014Z,32.70
2023-03-17T06:14:27.341Z,32.90
2023-03-17T06:17:08.150Z,33.00
2023-03-17T06:30:55.652Z,33.10
2023-03-17T06:36:37.573Z,33.20
2023-03-17T06:39:10.403Z,33.30
2023-03-17T07:01:13.564Z,33.60
2023-03-17T07:07:36.319Z,33.50
2023-03-17T07:10:38.396Z,33.50
2023-03-17T07:13:09.769Z,33.50
2023-03-17T07:15:44.978Z,33.50
2023-03-17T07:18:19.909Z,33.50
2023-03-17T07:20:58.724Z,33.50
2023-03-17T07:23:30.804Z,33.50
2023-03-17T07:26:10.982Z,33.40
2023-03-17T07:28:42.775Z,33.40
2023-03-17T07:31:15.935Z,33.40
2023-03-17T07:34:07.291Z,33.40
2023-03-17T07:36:38.804Z,33.40
2023-03-17T07:39:14.631Z,33.30
2023-03-17T07:41:45.820Z,33.20
2023-03-17T07:44:18.294Z,33.20
2023-03-17T07:47:12.961Z,33.10
2023-03-17T07:52:28.699Z,33.10
2023-03-17T07:55:07.681Z,32.90
2023-03-17T08:00:54.786Z,33.00
2023-03-17T08:03:39.303Z,33.00
2023-03-17T08:06:28.920Z,33.00
2023-03-17T08:09:01.482Z,33.10
2023-03-17T08:14:29.169Z,33.10
2023-03-17T08:17:00.271Z,33.10
2023-03-17T08:25:21.093Z,33.10
2023-03-17T08:31:04.434Z,33.10
2023-03-17T08:45:09.798Z,33.10
2023-03-17T08:50:35.399Z,33.00
2023-03-17T08:56:02.949Z,32.90
2023-03-17T08:58:37.973Z,33.00
2023-03-17T09:01:26.825Z,32.90
2023-03-17T09:03:59.530Z,32.90
2023-03-17T09:06:31.024Z,33.00
2023-03-17T09:09:03.815Z,32.90
2023-03-17T09:14:40.131Z,32.90
2023-03-17T09:17:08.035Z,32.90
2023-03-17T09:25:43.708Z,32.70
2023-03-17T09:28:20.761Z,32.70
2023-03-17T09:30:52.253Z,32.70
2023-03-17T09:33:23.710Z,32.70
2023-03-17T09:36:01.393Z,32.70
2023-03-17T09:38:36.674Z,32.70
2023-03-17T09:44:57.055Z,32.60
2023-03-17T09:51:13.798Z,32.60
2023-03-17T09:54:18.256Z,32.60
2023-03-17T09:56:53.861Z,32.50
2023-03-17T09:59:41.284Z,32.50
2023-03-17T10:02:27.991Z,32.50
2023-03-17T10:08:22.736Z,32.50
2023-03-17T10:11:05.765Z,32.40
2023-03-17T10:14:12.546Z,32.40
2023-03-17T10:16:54.895Z,32.30
2023-03-17T10:19:37.948Z,32.30
2023-03-17T10:22:24.665Z,32.30
2023-03-17T10:24:58.876Z,32.30
2023-03-17T10:27:40.509Z,32.30
2023-03-17T10:30:29.888Z,32.30
2023-03-17T10:33:08.591Z,32.20
2023-03-17T10:35:41.755Z,32.20
2023-03-17T10:38:28.485Z,32.20
2023-03-17T10:41:09.929Z,32.20
2023-03-17T10:43:54.648Z,32.20
2023-03-17T10:46:27.725Z,32.10
2023-03-17T10:49:23.270Z,32.10
2023-03-17T10:52:00.594Z,32.10
2023-03-17T10:57:31.922Z,32.00
2023-03-17T11:00:06.849Z,32.00
2023-03-17T11:06:05.446Z,31.90
2023-03-17T11:11:41.894Z,31.90
2023-03-17T11:20:25.659Z,31.80
2023-03-17T11:23:29.490Z,31.80
2023-03-17T11:32:33.376Z,31.60
2023-03-17T11:42:05.728Z,31.60
2023-03-17T11:48:08.775Z,31.50
2023-03-17T11:51:13.911Z,31.40
2023-03-17T11:53:52.167Z,31.40
2023-03-17T11:59:42.407Z,31.40
2023-03-17T12:02:43.682Z,31.30
2023-03-17T12:05:18.104Z,31.30
2023-03-17T12:11:00.851Z,31.20
2023-03-17T12:13:54.749Z,31.20
2023-03-17T12:19:39.994Z,31.20
2023-03-17T12:25:24.577Z,31.10
2023-03-17T12:28:17.780Z,31.10
2023-03-17T12:30:57.571Z,31.10
2023-03-17T12:36:42.793Z,31.10
2023-03-17T12:42:42.987Z,31.10
2023-03-17T12:51:53.326Z,31.00
2023-03-17T12:57:28.438Z,31.00
2023-03-17T13:00:21.045Z,31.00
2023-03-17T13:03:18.922Z,31.00
2023-03-17T13:11:50.217Z,30.90
2023-03-17T13:17:36.049Z,30.90
2023-03-17T13:26:09.507Z,30.80
2023-03-17T13:28:49.716Z,30.80
2023-03-17T13:46:47.872Z,30.60
2023-03-17T14:01:13.153Z,30.50
2023-03-17T14:19:34.901Z,30.30
2023-03-17T14:22:21.386Z,30.30
2023-03-17T14:54:33.039Z,30.10
2023-03-17T14:57:16.915Z,30.10
2023-03-17T15:20:29.434Z,29.90
2023-03-17T15:23:04.054Z,30.00
2023-03-17T15:31:41.599Z,29.90
2023-03-17T15:48:36.246Z,29.80
2023-03-17T15:51:08.605Z,29.80
2023-03-17T15:53:39.610Z,29.80
2023-03-17T15:56:21.346Z,29.80
2023-03-17T15:58:53.413Z,29.80
2023-03-17T16:01:28.564Z,29.80
2023-03-17T16:03:59.596Z,29.70
2023-03-17T16:06:30.504Z,29.70
2023-03-17T16:09:01.478Z,29.70
2023-03-17T16:17:29.500Z,29.60
2023-03-17T16:20:02.520Z,29.50
2023-03-17T16:31:36.658Z,29.40
2023-03-17T16:34:22.568Z,29.40
2023-03-17T16:36:55.297Z,29.30
2023-03-17T16:39:27.381Z,29.30
2023-03-17T16:42:02.947Z,29.30
2023-03-17T16:44:43.459Z,29.30
2023-03-17T16:50:13.962Z,29.30
2023-03-17T16:52:59.167Z,29.30
2023-03-17T16:55:45.167Z,29.30
2023-03-17T16:58:44.509Z,29.30
2023-03-17T17:01:17.780Z,29.30
2023-03-17T17:03:49.026Z,29.20
2023-03-17T17:06:21.918Z,29.30
2023-03-17T17:08:53.587Z,29.30
2023-03-17T17:11:24.610Z,29.20
2023-03-17T17:13:55.510Z,29.20
2023-03-17T17:16:31.934Z,29.20
2023-03-17T17:19:03.768Z,29.20
2023-03-17T17:21:45.600Z,29.10
2023-03-17T17:50:08.692Z,29.00
2023-03-17T17:52:38.680Z,29.00
2023-03-17T17:55:22.994Z,29.00
2023-03-17T18:00:46.404Z,29.00
2023-03-17T18:06:16.731Z,28.90
2023-03-17T18:08:51.270Z,28.90
2023-03-17T18:43:19.593Z,28.70
2023-03-17T18:45:54.735Z,28.70
2023-03-17T19:05:46.085Z,28.60
2023-03-17T19:08:17.803Z,28.60
2023-03-17T19:10:49.200Z,28.50
2023-03-17T19:13:20.106Z,28.50
2023-03-17T19:15:51.030Z,28.50
2023-03-17T19:18:21.968Z,28.50
2023-03-17T19:20:53.628Z,28.40
2023-03-17T19:23:24.655Z,28.40
2023-03-17T19:25:56.360Z,28.40
2023-03-17T19:28:27.356Z,28.40
2023-03-17T19:30:58.277Z,28.40
2023-03-17T19:33:30.052Z,28.30
2023-03-17T19:36:01.546Z,28.30
2023-03-17T19:38:35.310Z,28.30
2023-03-17T19:41:06.981Z,28.30
2023-03-17T19:43:41.046Z,28.30
2023-03-17T19:46:10.606Z,28.30
2023-03-17T19:48:43.361Z,28.30
2023-03-17T19:51:14.353Z,28.20
2023-03-17T19:53:45.251Z,28.20
2023-03-17T19:56:16.498Z,28.20
2023-03-17T19:58:47.516Z,28.20
2023-03-17T20:01:19.052Z,28.20
2023-03-17T20:03:49.988Z,28.20
2023-03-17T20:06:21.757Z,28.20
2023-03-17T20:08:52.705Z,28.20
2023-03-17T20:11:23.704Z,28.10
2023-03-17T20:13:54.615Z,28.10
2023-03-17T20:16:25.607Z,28.10
2023-03-17T20:18:56.589Z,28.10
2023-03-17T20:21:40.314Z,28.10
2023-03-17T20:24:13.550Z,28.00
2023-03-17T20:29:34.964Z,27.90
2023-03-17T20:32:10.230Z,27.80
2023-03-17T20:34:47.032Z,27.70
2023-03-17T20:37:18.222Z,27.60
2023-03-17T20:39:51.959Z,27.60
2023-03-17T20:42:22.953Z,27.60
2023-03-17T20:44:57.488Z,27.60
2023-03-17T20:47:29.429Z,27.60
2023-03-17T20:50:00.598Z,27.60
2023-03-17T20:52:31.667Z,27.50
2023-03-17T20:55:03.497Z,27.50
2023-03-17T20:57:34.736Z,27.50
2023-03-17T21:00:06.592Z,27.40
2023-03-17T21:02:37.489Z,27.40
2023-03-17T21:05:08.858Z,27.30
2023-03-17T21:07:44.881Z,27.20
2023-03-17T21:13:06.182Z,27.00
2023-03-17T21:15:37.483Z,26.90
2023-03-17T21:18:11.679Z,26.90
2023-03-17T21:20:45.032Z,26.80
2023-03-17T21:23:15.880Z,26.70
2023-03-17T21:28:58.479Z,26.70
2023-03-17T21:31:29.540Z,26.70
2023-03-17T21:42:59.873Z,26.70
2023-03-17T21:48:23.007Z,26.80
2023-03-17T21:53:53.978Z,26.70
2023-03-17T21:56:21.838Z,26.70
2023-03-17T21:58:53.004Z,26.70
2023-03-17T22:01:24.717Z,26.70
2023-03-17T22:03:56.002Z,26.70
2023-03-17T22:06:28.688Z,26.60
2023-03-17T22:09:02.882Z,26.60
2023-03-17T22:11:33.732Z,26.60
2023-03-17T22:14:10.375Z,26.60
2023-03-17T22:19:39.520Z,26.50
2023-03-17T22:22:17.835Z,26.50
2023-03-17T22:24:59.403Z,26.50
2023-03-17T22:30:22.166Z,26.60
2023-03-17T22:35:49.846Z,26.60
2023-03-17T22:47:01.728Z,26.60
2023-03-17T23:09:28.593Z,26.60
2023-03-17T23:20:14.081Z,26.50
2023-03-17T23:20:41.183Z,26.60
2023-03-17T23:23:32.547Z,26.50
2023-03-17T23:31:40.084Z,26.60
2023-03-17T23:37:13.431Z,26.60
2023-03-17T23:42:41.954Z,26.60
2023-03-17T23:45:22.540Z,26.60
2023-03-17T23:50:50.410Z,26.50
2023-03-17T23:53:24.696Z,26.50
2023-03-17T23:55:56.556Z,26.50
